Portada
METAR-TAF:

METAR-TAF

Aeropuertos :

Aeropuerto de Heringsdorf

Heringsdorf, Alemania

latitud: 53-53N, longitud: 014-09E, altitud: 28 m

Observación

El informe se hizo hace 6 horas y 17 minutos, a las 15:50 UTC
Viento 10 kt del oeste, variando entre suroeste y oeste-noroeste
Temperatura 12°C
Humedad 38%
Presión 1003 hPa
Visibilidad 10 km o más
sin nubes por debajo de 1500 m y sin presencia de cumulonimbus.

METAR: EDAH 061550Z 26010KT 220V290 CAVOK 12/M02 Q1003

Hora: 00:07 (22:07 UTC)

Pronóstico

El informe se hizo hace 8 horas y 7 minutos, a las 14:00 UTC
Pronóstico válido del 06 a las 15 UTC al 06 a las 24 UTC
Viento 13 kt del oeste con ráfagas de 23 kt
Visibilidad 10 km o más
sin nubes por debajo de 1500 m y sin presencia de cumulonimbus.
Evolucionando progresivamente
del 06 a las 16 UTC al 06 a las 18 UTC
Viento 8 kt del oeste

TAF: EDAH 061400Z 0615/0624 26013G23KT CAVOK BECMG 0616/0618 28008KT

Observaciones y pronósticos meteorológicos de más de 4000 aeropuertos (mensajes METAR y TAF).

Los puntos amarillos y rojos representan las estaciones disponibles.

Ponga el ratón en el punto deseado para ver el nombre de la estación.

Haga clic para ver las observaciones y los pronósticos meteorológicos.

Para cambiar el mapa : haga clic en los botones verdes con una cruz de color negro para hacer un zoom, en el botón verde con un guión para alejar o en las flechas verdes para mapas adyacentes.


METAR-TAF: